Search for airport 
image banner adimage banner ad
image banner ad

LESIET - Siete Aquas (forestal)

Located in , Spain

ICAO - , IATA -

Data provided by Airmate  

General information

Coordinates: N39°29'19" W0°54'8"
Elevation is 2789 feet MSL.
 
View others Airports in Valencia

Operational data

Open for public use
Current time UTC:
Current local time:
Weather at : LEVC - Valencia/Manises ( 36 km )
METAR: LEVC 230830Z 26008KT 230V300 9999 FEW045 12/02 Q1015 NOSIG
TAF: TAF LEVC 230500Z 2306/2406 27015KT 9999 FEW030 TX17/2313Z TN06/2306Z TEMPO 2309/2316 29020G40KT
View NOTAMs / SUP AIP / TFR affecting this airport [VIEW]
Communications frequencies: [VIEW]

Runways:

RWY identifierQFULength (ft)Width (ft)SurfaceLDA (ft)
13262566DIRT
31262566DIRT

Airport contact information

Address: Spain

Satellite view of LESIET